Time;durP1;ratioP1;P1;durP2;ratioP2;P2;SDS_P1;SDS_P2;PMS_P1;PMS_P2;Temp;Humidity;BMP_temperature;BMP_pressure;BME280_temperature;BME280_humidity;BME280_pressure;Samples;Min_cycle;Max_cycle;Signal;HPM_P1;HPM_P2
2021/07/16 00:01:32;;;;;;;2.27;2.17;;;;;;;;;;468844;253;27668;-73
2021/07/16 00:03:34;;;;;;;2.40;2.30;;;;;;;;;;468837;253;27543;-73
2021/07/16 00:05:37;;;;;;;2.60;2.50;;;;;;;;;;468842;254;27609;-73
2021/07/16 00:07:39;;;;;;;2.20;2.10;;;;;;;;;;468851;253;27518;-73
2021/07/16 00:09:41;;;;;;;3.20;2.70;;;;;;;;;;468822;254;27638;-73
2021/07/16 00:11:43;;;;;;;2.33;2.23;;;;;;;;;;468844;253;27512;-73
2021/07/16 00:13:45;;;;;;;2.00;1.90;;;;;;;;;;468852;253;27518;-73
2021/07/16 00:15:47;;;;;;;2.17;2.07;;;;;;;;;;468837;253;27511;-73
2021/07/16 00:17:49;;;;;;;2.10;2.00;;;;;;;;;;468837;253;27516;-73
2021/07/16 00:19:51;;;;;;;2.30;2.20;;;;;;;;;;468877;253;27532;-73
2021/07/16 00:21:53;;;;;;;2.70;2.50;;;;;;;;;;468855;253;27597;-73
2021/07/16 00:23:56;;;;;;;2.50;2.40;;;;;;;;;;468872;253;29321;-73
2021/07/16 00:25:58;;;;;;;2.40;2.30;;;;;;;;;;468843;253;27521;-73
2021/07/16 00:28:00;;;;;;;1.93;1.83;;;;;;;;;;468845;253;28705;-73
2021/07/16 00:30:02;;;;;;;2.43;2.33;;;;;;;;;;468867;253;27553;-73
2021/07/16 00:32:04;;;;;;;2.60;2.27;;;;;;;;;;468847;253;27563;-74
2021/07/16 00:34:06;;;;;;;2.07;1.97;;;;;;;;;;468861;253;27679;-73
2021/07/16 00:36:08;;;;;;;2.43;2.33;;;;;;;;;;468875;253;27614;-73
2021/07/16 00:38:12;;;;;;;2.20;2.10;;;;;;;;;;468859;253;27581;-74
2021/07/16 00:40:13;;;;;;;4.00;2.57;;;;;;;;;;468792;253;27541;-73
2021/07/16 00:42:15;;;;;;;2.87;2.67;;;;;;;;;;468872;253;27557;-73
2021/07/16 00:44:17;;;;;;;2.40;2.30;;;;;;;;;;468875;253;27542;-73
2021/07/16 00:46:19;;;;;;;2.23;2.13;;;;;;;;;;468895;253;27659;-73
2021/07/16 00:48:21;;;;;;;2.10;2.00;;;;;;;;;;468882;253;27558;-74
2021/07/16 00:50:24;;;;;;;2.87;2.60;;;;;;;;;;468856;253;27552;-74
2021/07/16 00:52:25;;;;;;;2.93;2.73;;;;;;;;;;468839;253;27544;-73
2021/07/16 00:54:27;;;;;;;2.40;2.30;;;;;;;;;;468835;253;27549;-74
2021/07/16 00:56:29;;;;;;;2.40;2.30;;;;;;;;;;468849;253;27638;-73
2021/07/16 00:58:32;;;;;;;2.43;2.33;;;;;;;;;;468863;253;27546;-73
2021/07/16 01:00:34;;;;;;;2.50;2.40;;;;;;;;;;468865;252;27529;-73
2021/07/16 01:02:36;;;;;;;2.60;2.40;;;;;;;;;;468848;253;27547;-74
2021/07/16 01:04:38;;;;;;;2.20;2.10;;;;;;;;;;468850;253;27615;-73
2021/07/16 01:06:40;;;;;;;2.37;2.27;;;;;;;;;;468844;253;27675;-73
2021/07/16 01:08:42;;;;;;;2.53;2.33;;;;;;;;;;468860;253;27520;-73
2021/07/16 01:10:44;;;;;;;2.13;2.03;;;;;;;;;;468846;253;27630;-73
2021/07/16 01:12:51;;;;;;;2.10;2.00;;;;;;;;;;468849;253;27557;-73
2021/07/16 01:14:48;;;;;;;2.10;2.00;;;;;;;;;;468675;253;27545;-73
2021/07/16 01:16:51;;;;;;;2.20;2.10;;;;;;;;;;468853;253;27545;-73
2021/07/16 01:18:53;;;;;;;2.00;1.90;;;;;;;;;;468852;253;27516;-73
2021/07/16 01:20:55;;;;;;;1.93;1.83;;;;;;;;;;468857;253;27581;-74
2021/07/16 01:22:57;;;;;;;2.30;2.20;;;;;;;;;;468854;253;27520;-73
2021/07/16 01:24:59;;;;;;;5.20;2.30;;;;;;;;;;468860;253;27508;-73
2021/07/16 01:27:01;;;;;;;2.33;2.23;;;;;;;;;;468864;253;27634;-73
2021/07/16 01:29:04;;;;;;;2.30;2.20;;;;;;;;;;468868;253;27567;-74
2021/07/16 01:31:05;;;;;;;2.20;2.10;;;;;;;;;;468855;252;27606;-73
2021/07/16 01:33:07;;;;;;;2.07;1.97;;;;;;;;;;468849;253;27587;-73
2021/07/16 01:35:10;;;;;;;2.23;2.13;;;;;;;;;;468849;253;27508;-74
2021/07/16 01:37:12;;;;;;;2.70;2.60;;;;;;;;;;468850;247;27504;-73
2021/07/16 01:39:14;;;;;;;2.10;2.00;;;;;;;;;;468864;253;27536;-73
2021/07/16 01:41:16;;;;;;;2.30;2.20;;;;;;;;;;468860;253;27548;-73
2021/07/16 01:43:18;;;;;;;2.50;2.40;;;;;;;;;;468865;253;27534;-73
2021/07/16 01:45:20;;;;;;;2.30;2.20;;;;;;;;;;468860;253;27557;-73
2021/07/16 01:47:22;;;;;;;2.30;2.20;;;;;;;;;;468851;253;27553;-73
2021/07/16 01:49:24;;;;;;;2.60;2.50;;;;;;;;;;468872;253;27555;-73
2021/07/16 01:51:26;;;;;;;2.33;2.23;;;;;;;;;;468857;253;27568;-73
2021/07/16 01:53:29;;;;;;;2.43;2.33;;;;;;;;;;468856;253;27548;-73
2021/07/16 01:55:31;;;;;;;2.30;2.20;;;;;;;;;;468868;253;27674;-73
2021/07/16 01:57:33;;;;;;;2.60;2.07;;;;;;;;;;468847;253;27534;-73
2021/07/16 01:59:35;;;;;;;2.00;1.90;;;;;;;;;;468883;253;27637;-73
2021/07/16 02:01:37;;;;;;;2.37;2.17;;;;;;;;;;468889;253;27547;-73
2021/07/16 02:03:39;;;;;;;2.20;2.00;;;;;;;;;;468858;253;27559;-73
2021/07/16 02:05:41;;;;;;;2.40;2.30;;;;;;;;;;468851;253;27554;-74
2021/07/16 02:07:43;;;;;;;2.20;2.10;;;;;;;;;;468886;253;27554;-73
2021/07/16 02:09:45;;;;;;;2.30;2.20;;;;;;;;;;468856;253;27546;-73
2021/07/16 02:11:48;;;;;;;2.20;2.10;;;;;;;;;;468850;253;27591;-73
2021/07/16 02:13:50;;;;;;;2.47;2.27;;;;;;;;;;468849;253;27638;-73
2021/07/16 02:15:52;;;;;;;2.70;2.50;;;;;;;;;;468860;253;27556;-73
2021/07/16 02:17:54;;;;;;;2.13;2.03;;;;;;;;;;468858;253;27530;-73
2021/07/16 02:19:56;;;;;;;2.20;2.10;;;;;;;;;;468857;253;27542;-73
2021/07/16 02:21:58;;;;;;;2.50;2.30;;;;;;;;;;468848;253;27605;-74
2021/07/16 02:24:00;;;;;;;2.67;2.47;;;;;;;;;;468836;247;27543;-74
2021/07/16 02:26:02;;;;;;;2.33;2.13;;;;;;;;;;468865;253;27517;-74
2021/07/16 02:28:05;;;;;;;2.70;2.60;;;;;;;;;;468860;253;27516;-74
2021/07/16 02:30:07;;;;;;;2.60;2.40;;;;;;;;;;468864;253;27503;-73
2021/07/16 02:32:09;;;;;;;2.53;2.33;;;;;;;;;;468861;253;27517;-73
2021/07/16 02:34:11;;;;;;;2.53;2.40;;;;;;;;;;468844;253;27558;-73
2021/07/16 02:36:16;;;;;;;2.10;2.00;;;;;;;;;;468859;253;27605;-74
2021/07/16 02:38:15;;;;;;;2.00;1.90;;;;;;;;;;468762;253;27518;-73
2021/07/16 02:40:18;;;;;;;2.10;2.00;;;;;;;;;;468829;253;27523;-73
2021/07/16 02:42:19;;;;;;;2.30;2.20;;;;;;;;;;468864;253;27515;-73
2021/07/16 02:44:21;;;;;;;2.30;2.10;;;;;;;;;;468863;253;27608;-74
2021/07/16 02:46:24;;;;;;;2.50;2.30;;;;;;;;;;468815;253;27615;-73
2021/07/16 02:48:26;;;;;;;2.50;2.40;;;;;;;;;;468871;253;27541;-73
2021/07/16 02:50:28;;;;;;;2.43;2.33;;;;;;;;;;468820;253;27510;-73
2021/07/16 02:52:30;;;;;;;2.50;2.30;;;;;;;;;;468838;253;27587;-73
2021/07/16 02:54:32;;;;;;;2.67;2.37;;;;;;;;;;468849;253;27635;-73
2021/07/16 02:56:34;;;;;;;2.10;2.00;;;;;;;;;;468817;253;27635;-73
2021/07/16 02:58:36;;;;;;;2.50;2.40;;;;;;;;;;468830;253;27528;-74
2021/07/16 03:00:38;;;;;;;2.57;2.47;;;;;;;;;;468846;253;27520;-74
2021/07/16 03:02:40;;;;;;;2.70;2.50;;;;;;;;;;468833;253;28156;-73
2021/07/16 03:04:43;;;;;;;3.00;2.50;;;;;;;;;;468862;253;27573;-74
2021/07/16 03:06:45;;;;;;;3.73;2.60;;;;;;;;;;468797;253;27630;-73
2021/07/16 03:08:47;;;;;;;2.40;2.30;;;;;;;;;;468863;253;27643;-73
2021/07/16 03:10:49;;;;;;;2.57;2.47;;;;;;;;;;468859;253;27634;-73
2021/07/16 03:12:51;;;;;;;2.60;2.40;;;;;;;;;;468839;253;27579;-73
2021/07/16 03:14:53;;;;;;;2.70;2.23;;;;;;;;;;468858;253;27631;-73
2021/07/16 03:16:55;;;;;;;2.60;2.40;;;;;;;;;;468853;253;27685;-74
2021/07/16 03:18:57;;;;;;;2.20;2.10;;;;;;;;;;468872;253;27627;-73
2021/07/16 03:20:59;;;;;;;2.20;2.10;;;;;;;;;;468864;253;27562;-73
2021/07/16 03:23:02;;;;;;;2.37;2.27;;;;;;;;;;468868;253;27549;-74
2021/07/16 03:25:04;;;;;;;2.30;2.20;;;;;;;;;;468877;253;27631;-73
2021/07/16 03:27:06;;;;;;;2.40;2.30;;;;;;;;;;468861;253;27546;-73
2021/07/16 03:29:08;;;;;;;2.30;2.20;;;;;;;;;;468849;253;27643;-74
2021/07/16 03:31:10;;;;;;;2.20;2.10;;;;;;;;;;468859;253;27631;-73
2021/07/16 03:33:12;;;;;;;2.70;2.27;;;;;;;;;;468842;253;27567;-74
2021/07/16 03:35:14;;;;;;;2.10;2.00;;;;;;;;;;468823;253;27615;-73
2021/07/16 03:37:16;;;;;;;2.40;2.27;;;;;;;;;;468854;253;27549;-74
2021/07/16 03:39:19;;;;;;;2.37;2.27;;;;;;;;;;468845;253;27601;-73
2021/07/16 03:41:21;;;;;;;3.60;3.30;;;;;;;;;;468844;253;27559;-73
2021/07/16 03:43:23;;;;;;;2.70;2.60;;;;;;;;;;468831;253;27509;-73
2021/07/16 03:45:25;;;;;;;2.40;2.30;;;;;;;;;;468868;253;27538;-73
2021/07/16 03:47:27;;;;;;;2.97;2.87;;;;;;;;;;468838;253;27507;-73
2021/07/16 03:49:29;;;;;;;3.80;3.60;;;;;;;;;;468858;253;27648;-74
2021/07/16 03:51:31;;;;;;;3.20;3.00;;;;;;;;;;468853;254;27547;-73
2021/07/16 03:53:33;;;;;;;2.70;2.60;;;;;;;;;;468837;253;27571;-74
2021/07/16 03:55:35;;;;;;;3.07;2.87;;;;;;;;;;468852;253;27579;-74
2021/07/16 03:57:38;;;;;;;2.97;2.87;;;;;;;;;;468865;253;27531;-74
2021/07/16 03:59:40;;;;;;;3.10;3.00;;;;;;;;;;468864;253;27579;-73
2021/07/16 04:01:42;;;;;;;2.83;2.63;;;;;;;;;;468838;253;27559;-73
2021/07/16 04:03:44;;;;;;;2.83;2.73;;;;;;;;;;468821;253;27512;-73
2021/07/16 04:05:46;;;;;;;2.97;2.77;;;;;;;;;;468828;253;27603;-73
2021/07/16 04:07:50;;;;;;;2.90;2.73;;;;;;;;;;468874;253;27588;-74
2021/07/16 04:09:50;;;;;;;2.60;2.50;;;;;;;;;;468802;253;27601;-74
2021/07/16 04:11:52;;;;;;;2.67;2.57;;;;;;;;;;468867;253;27553;-73
2021/07/16 04:13:54;;;;;;;2.97;2.80;;;;;;;;;;468857;253;27619;-74
2021/07/16 04:15:57;;;;;;;2.87;2.67;;;;;;;;;;468854;253;27642;-73
2021/07/16 04:17:59;;;;;;;3.37;3.17;;;;;;;;;;468867;253;27551;-74
2021/07/16 04:20:01;;;;;;;3.97;3.67;;;;;;;;;;468866;253;27621;-73
2021/07/16 04:22:03;;;;;;;4.10;3.70;;;;;;;;;;468858;253;27589;-73
2021/07/16 04:24:05;;;;;;;3.67;3.37;;;;;;;;;;468868;253;27544;-74
2021/07/16 04:26:07;;;;;;;3.80;3.10;;;;;;;;;;468848;253;27550;-74
2021/07/16 04:28:09;;;;;;;4.77;4.37;;;;;;;;;;468861;253;27562;-73
2021/07/16 04:30:11;;;;;;;4.37;3.97;;;;;;;;;;468876;253;27577;-74
2021/07/16 04:32:14;;;;;;;3.80;3.60;;;;;;;;;;468852;253;27542;-74
2021/07/16 04:34:16;;;;;;;4.57;4.17;;;;;;;;;;468869;253;27563;-73
2021/07/16 04:36:18;;;;;;;4.00;3.80;;;;;;;;;;468877;253;27567;-74
2021/07/16 04:38:20;;;;;;;4.13;3.83;;;;;;;;;;468883;253;27574;-73
2021/07/16 04:40:22;;;;;;;3.77;3.47;;;;;;;;;;468873;253;27547;-73
2021/07/16 04:42:24;;;;;;;4.40;4.20;;;;;;;;;;468860;253;27641;-74
2021/07/16 04:44:26;;;;;;;4.70;4.30;;;;;;;;;;468851;253;27621;-74
2021/07/16 04:46:28;;;;;;;4.73;4.33;;;;;;;;;;468877;253;27542;-73
2021/07/16 04:48:30;;;;;;;4.23;3.83;;;;;;;;;;468867;253;27614;-74
2021/07/16 04:50:33;;;;;;;3.70;3.50;;;;;;;;;;468910;253;27525;-74
2021/07/16 04:52:35;;;;;;;3.70;3.50;;;;;;;;;;468889;253;27503;-74
2021/07/16 04:54:37;;;;;;;3.67;3.47;;;;;;;;;;468888;253;27555;-74
2021/07/16 04:56:39;;;;;;;3.67;3.47;;;;;;;;;;468854;253;27603;-74
2021/07/16 04:58:41;;;;;;;3.40;3.20;;;;;;;;;;468876;253;27527;-74
2021/07/16 05:00:43;;;;;;;3.67;3.47;;;;;;;;;;468865;253;27510;-74
2021/07/16 05:02:45;;;;;;;3.30;3.10;;;;;;;;;;468871;253;27514;-74
2021/07/16 05:04:47;;;;;;;3.77;3.37;;;;;;;;;;468855;253;27498;-73
2021/07/16 05:06:49;;;;;;;3.33;3.03;;;;;;;;;;468854;253;27607;-73
2021/07/16 05:08:52;;;;;;;4.53;4.23;;;;;;;;;;468860;253;27622;-74
2021/07/16 05:10:54;;;;;;;4.33;3.97;;;;;;;;;;468865;253;27516;-74
2021/07/16 05:12:56;;;;;;;4.50;4.10;;;;;;;;;;468862;253;27592;-73
2021/07/16 05:14:58;;;;;;;4.70;4.30;;;;;;;;;;468874;253;27578;-74
2021/07/16 05:17:00;;;;;;;7.27;4.70;;;;;;;;;;468864;253;27505;-74
2021/07/16 05:19:02;;;;;;;5.90;5.40;;;;;;;;;;468853;253;27570;-74
2021/07/16 05:21:04;;;;;;;6.53;5.93;;;;;;;;;;468871;253;27832;-74
2021/07/16 05:23:06;;;;;;;6.13;5.63;;;;;;;;;;468849;253;27626;-74
2021/07/16 05:25:09;;;;;;;5.30;4.80;;;;;;;;;;468868;253;27555;-74
2021/07/16 05:27:11;;;;;;;6.50;5.83;;;;;;;;;;468820;253;27625;-74
2021/07/16 05:29:13;;;;;;;8.73;6.40;;;;;;;;;;468818;253;27637;-74
2021/07/16 05:31:15;;;;;;;8.30;7.30;;;;;;;;;;468783;248;27554;-74
2021/07/16 05:33:17;;;;;;;10.43;7.27;;;;;;;;;;468758;253;27618;-73
2021/07/16 05:35:20;;;;;;;8.53;7.50;;;;;;;;;;468788;253;27578;-74
2021/07/16 05:37:21;;;;;;;9.00;7.87;;;;;;;;;;468774;253;27542;-74
2021/07/16 05:39:23;;;;;;;10.70;8.50;;;;;;;;;;468831;253;27558;-74
2021/07/16 05:41:25;;;;;;;12.00;9.90;;;;;;;;;;468804;253;27539;-73
2021/07/16 05:43:27;;;;;;;12.80;9.40;;;;;;;;;;468806;253;27642;-74
2021/07/16 05:45:30;;;;;;;15.40;12.27;;;;;;;;;;468828;253;27631;-74
2021/07/16 05:47:32;;;;;;;14.80;12.53;;;;;;;;;;468873;253;27575;-74
2021/07/16 05:49:34;;;;;;;19.00;13.87;;;;;;;;;;468870;253;27566;-74
2021/07/16 05:51:36;;;;;;;22.07;15.90;;;;;;;;;;468869;253;27976;-74
2021/07/16 05:53:38;;;;;;;21.43;16.60;;;;;;;;;;468859;253;27654;-74
2021/07/16 05:55:40;;;;;;;17.43;13.93;;;;;;;;;;468868;253;27980;-74
2021/07/16 05:57:42;;;;;;;20.60;14.53;;;;;;;;;;468848;253;27561;-74
2021/07/16 05:59:44;;;;;;;20.10;15.03;;;;;;;;;;468857;253;27963;-74
2021/07/16 06:01:47;;;;;;;20.07;15.17;;;;;;;;;;468845;253;27529;-74
2021/07/16 06:03:49;;;;;;;19.37;14.63;;;;;;;;;;468881;253;27509;-74
2021/07/16 06:05:51;;;;;;;18.40;14.70;;;;;;;;;;468864;253;27533;-74
2021/07/16 06:07:53;;;;;;;20.40;13.77;;;;;;;;;;468868;253;27519;-73
2021/07/16 06:09:55;;;;;;;21.43;16.03;;;;;;;;;;468861;253;27518;-74
2021/07/16 06:11:57;;;;;;;19.93;14.10;;;;;;;;;;468868;253;27959;-74
2021/07/16 06:13:59;;;;;;;15.90;12.37;;;;;;;;;;468868;253;27497;-74
2021/07/16 06:16:01;;;;;;;16.30;13.17;;;;;;;;;;468887;253;27966;-74
2021/07/16 06:18:04;;;;;;;14.03;12.07;;;;;;;;;;468872;253;27501;-74
2021/07/16 06:20:06;;;;;;;13.40;11.90;;;;;;;;;;468888;253;27570;-74
2021/07/16 06:22:08;;;;;;;12.97;10.67;;;;;;;;;;468895;253;27574;-74
2021/07/16 06:24:10;;;;;;;11.47;10.23;;;;;;;;;;468878;253;27520;-74
2021/07/16 06:26:12;;;;;;;12.33;10.30;;;;;;;;;;468868;253;27554;-74
2021/07/16 06:28:14;;;;;;;13.07;11.13;;;;;;;;;;468851;253;27623;-74
2021/07/16 06:30:16;;;;;;;11.60;10.40;;;;;;;;;;468890;253;28063;-74
2021/07/16 06:32:18;;;;;;;13.50;11.00;;;;;;;;;;468885;253;27632;-73
2021/07/16 06:34:20;;;;;;;13.87;11.30;;;;;;;;;;468879;253;28023;-74
2021/07/16 06:36:23;;;;;;;15.40;13.00;;;;;;;;;;468888;253;27631;-74
2021/07/16 06:38:25;;;;;;;13.20;11.20;;;;;;;;;;468365;253;28063;-75
2021/07/16 06:40:27;;;;;;;13.33;11.20;;;;;;;;;;468628;253;27586;-74
2021/07/16 06:42:29;;;;;;;12.53;10.40;;;;;;;;;;468764;253;27590;-74
2021/07/16 06:44:31;;;;;;;11.43;10.23;;;;;;;;;;468792;253;27618;-74
2021/07/16 06:46:33;;;;;;;11.17;9.90;;;;;;;;;;468385;253;27630;-74
2021/07/16 06:48:35;;;;;;;10.60;8.87;;;;;;;;;;468778;253;28024;-74
2021/07/16 06:50:37;;;;;;;9.90;8.90;;;;;;;;;;468782;253;28054;-74
2021/07/16 06:52:40;;;;;;;10.17;9.10;;;;;;;;;;468829;253;27567;-75
2021/07/16 06:54:42;;;;;;;9.53;8.53;;;;;;;;;;468833;253;27994;-74
2021/07/16 06:56:44;;;;;;;9.77;8.80;;;;;;;;;;468749;253;27556;-74
2021/07/16 06:58:46;;;;;;;9.30;8.30;;;;;;;;;;468544;253;28086;-74
2021/07/16 07:00:50;;;;;;;8.47;7.67;;;;;;;;;;468353;253;27586;-75
2021/07/16 07:02:50;;;;;;;6.90;6.30;;;;;;;;;;468743;251;28922;-74
2021/07/16 07:04:52;;;;;;;8.00;7.20;;;;;;;;;;468360;253;27598;-74
2021/07/16 07:06:55;;;;;;;7.50;6.80;;;;;;;;;;468659;253;28257;-74
2021/07/16 07:08:57;;;;;;;7.53;6.83;;;;;;;;;;468632;253;27624;-74
2021/07/16 07:10:59;;;;;;;8.83;7.93;;;;;;;;;;468604;253;28159;-74
2021/07/16 07:13:01;;;;;;;7.20;6.50;;;;;;;;;;468570;253;27659;-74
2021/07/16 07:15:03;;;;;;;6.70;6.10;;;;;;;;;;468656;253;28114;-74
2021/07/16 07:17:05;;;;;;;7.43;6.73;;;;;;;;;;468767;253;27662;-74
2021/07/16 07:19:07;;;;;;;7.67;6.53;;;;;;;;;;468777;254;28054;-74
2021/07/16 07:21:09;;;;;;;6.60;6.00;;;;;;;;;;468770;253;27595;-74
2021/07/16 07:23:11;;;;;;;6.20;5.60;;;;;;;;;;468790;253;28134;-74
2021/07/16 07:25:14;;;;;;;5.70;5.20;;;;;;;;;;468758;253;27683;-74
2021/07/16 07:27:16;;;;;;;6.70;6.10;;;;;;;;;;468755;253;28126;-74
2021/07/16 07:29:18;;;;;;;7.40;6.33;;;;;;;;;;468745;253;27676;-74
2021/07/16 07:31:20;;;;;;;5.80;5.30;;;;;;;;;;468732;253;28122;-74
2021/07/16 07:33:22;;;;;;;6.90;6.20;;;;;;;;;;468759;253;27606;-74
2021/07/16 07:35:24;;;;;;;5.80;5.30;;;;;;;;;;468784;253;27987;-74
2021/07/16 07:37:26;;;;;;;5.40;4.90;;;;;;;;;;468758;253;27536;-74
2021/07/16 07:39:28;;;;;;;5.40;4.90;;;;;;;;;;468781;253;28077;-73
2021/07/16 07:41:30;;;;;;;5.70;5.20;;;;;;;;;;468838;253;27500;-74
2021/07/16 07:43:33;;;;;;;8.87;6.07;;;;;;;;;;468788;253;28149;-74
2021/07/16 07:45:35;;;;;;;6.40;5.63;;;;;;;;;;468822;253;27600;-73
2021/07/16 07:47:37;;;;;;;5.60;5.10;;;;;;;;;;468707;250;28010;-74
2021/07/16 07:49:39;;;;;;;6.27;5.70;;;;;;;;;;473856;249;27417;-74
2021/07/16 07:51:41;;;;;;;5.20;4.70;;;;;;;;;;473922;249;27900;-74
2021/07/16 07:53:43;;;;;;;5.50;5.00;;;;;;;;;;473898;249;27561;-74
2021/07/16 07:55:45;;;;;;;6.50;5.90;;;;;;;;;;473890;249;27981;-73
2021/07/16 07:57:47;;;;;;;5.87;5.30;;;;;;;;;;473906;249;27413;-74
2021/07/16 07:59:49;;;;;;;7.27;5.37;;;;;;;;;;473902;249;27914;-74
2021/07/16 08:01:52;;;;;;;5.37;4.90;;;;;;;;;;473874;249;27433;-74
2021/07/16 08:06:33;;;;;;;5.50;5.00;;;;;;;;;;463662;254;27467;-71
2021/07/16 08:08:35;;;;;;;5.20;4.70;;;;;;;;;;464816;255;28174;-72
2021/07/16 08:10:37;;;;;;;5.20;4.70;;;;;;;;;;464813;255;27634;-70
2021/07/16 08:12:39;;;;;;;4.87;4.47;;;;;;;;;;464854;255;28090;-70
2021/07/16 08:14:41;;;;;;;4.97;4.57;;;;;;;;;;473437;237;27500;-71
2021/07/16 08:16:46;;;;;;;6.43;4.20;;;;;;;;;;479529;247;27952;-72
2021/07/16 08:18:46;;;;;;;6.67;4.70;;;;;;;;;;479368;247;27627;-71
2021/07/16 08:20:48;;;;;;;5.10;4.60;;;;;;;;;;480445;246;28847;-72
2021/07/16 08:22:50;;;;;;;4.37;4.00;;;;;;;;;;481924;246;27618;-71
2021/07/16 08:24:52;;;;;;;4.60;4.20;;;;;;;;;;481906;246;27525;-70
2021/07/16 08:26:54;;;;;;;4.70;3.97;;;;;;;;;;481818;246;27514;-70
2021/07/16 08:28:56;;;;;;;5.33;4.83;;;;;;;;;;481903;246;27527;-72
2021/07/16 08:30:58;;;;;;;5.83;5.33;;;;;;;;;;481900;246;27542;-71
2021/07/16 08:33:00;;;;;;;6.10;5.50;;;;;;;;;;481857;246;27539;-71
2021/07/16 08:35:03;;;;;;;6.40;5.70;;;;;;;;;;481901;246;27977;-71
2021/07/16 08:37:05;;;;;;;5.67;5.13;;;;;;;;;;481903;246;27525;-71
2021/07/16 08:39:07;;;;;;;6.17;5.50;;;;;;;;;;479560;246;28037;-71
2021/07/16 08:41:09;;;;;;;5.97;5.27;;;;;;;;;;469666;252;27537;-71
2021/07/16 08:43:11;;;;;;;4.83;4.40;;;;;;;;;;469721;253;27573;-71
2021/07/16 08:45:13;;;;;;;6.43;5.50;;;;;;;;;;477618;245;27529;-71
2021/07/16 08:47:15;;;;;;;7.33;6.63;;;;;;;;;;479308;246;27493;-71
2021/07/16 08:49:17;;;;;;;6.80;6.10;;;;;;;;;;479392;246;27654;-71
2021/07/16 08:51:19;;;;;;;6.83;6.17;;;;;;;;;;479295;246;27460;-71
2021/07/16 08:53:23;;;;;;;6.20;5.60;;;;;;;;;;479521;246;27519;-71
2021/07/16 08:55:24;;;;;;;7.60;6.00;;;;;;;;;;479605;246;27476;-71
2021/07/16 08:57:27;;;;;;;7.80;6.77;;;;;;;;;;479613;246;27493;-71
2021/07/16 08:59:28;;;;;;;8.80;7.67;;;;;;;;;;479699;246;27561;-71
2021/07/16 09:01:31;;;;;;;8.90;7.63;;;;;;;;;;479649;245;27490;-71
2021/07/16 09:03:33;;;;;;;7.27;6.27;;;;;;;;;;479588;246;27976;-71
2021/07/16 09:05:36;;;;;;;8.60;6.87;;;;;;;;;;479631;246;27544;-71
2021/07/16 09:07:37;;;;;;;9.80;8.20;;;;;;;;;;479607;246;28048;-71
2021/07/16 09:09:40;;;;;;;8.13;7.30;;;;;;;;;;479578;246;27519;-71
2021/07/16 09:11:41;;;;;;;7.00;6.30;;;;;;;;;;479606;247;27985;-72
2021/07/16 09:13:43;;;;;;;7.50;6.70;;;;;;;;;;479661;246;27521;-71
2021/07/16 09:15:45;;;;;;;7.70;6.87;;;;;;;;;;479607;246;27981;-71
2021/07/16 09:17:48;;;;;;;6.80;6.10;;;;;;;;;;474300;246;27539;-71
2021/07/16 09:19:52;;;;;;;6.77;6.17;;;;;;;;;;474973;248;28043;-72
2021/07/16 09:21:54;;;;;;;7.37;6.50;;;;;;;;;;475520;248;27438;-70
2021/07/16 09:23:57;;;;;;;6.80;6.10;;;;;;;;;;475561;249;27352;-72
2021/07/16 09:25:59;;;;;;;6.80;6.20;;;;;;;;;;475583;249;27488;-72
2021/07/16 09:28:01;;;;;;;7.33;6.57;;;;;;;;;;475528;249;27439;-71
2021/07/16 09:30:03;;;;;;;6.43;5.83;;;;;;;;;;475575;248;27925;-72
2021/07/16 09:32:05;;;;;;;6.47;5.87;;;;;;;;;;475574;249;27502;-71
2021/07/16 09:34:07;;;;;;;6.90;6.20;;;;;;;;;;475526;249;27872;-72
2021/07/16 09:36:09;;;;;;;7.30;6.53;;;;;;;;;;475553;249;27407;-71
2021/07/16 09:38:14;;;;;;;6.70;6.10;;;;;;;;;;475563;248;28641;-71
2021/07/16 09:40:16;;;;;;;6.93;6.13;;;;;;;;;;475520;249;27508;-72
2021/07/16 09:42:19;;;;;;;6.27;5.67;;;;;;;;;;475556;249;27483;-69
2021/07/16 09:44:21;;;;;;;6.30;5.70;;;;;;;;;;475504;249;27500;-71
2021/07/16 09:46:23;;;;;;;6.83;5.90;;;;;;;;;;475541;249;27366;-71
2021/07/16 09:48:25;;;;;;;7.43;6.40;;;;;;;;;;475578;249;27438;-71
2021/07/16 09:50:27;;;;;;;8.17;6.70;;;;;;;;;;475545;249;27518;-72
2021/07/16 09:52:29;;;;;;;8.23;6.60;;;;;;;;;;475533;249;27442;-71
2021/07/16 09:54:31;;;;;;;7.13;6.40;;;;;;;;;;475547;249;27423;-71
2021/07/16 09:56:34;;;;;;;7.00;6.30;;;;;;;;;;475545;249;27486;-72
2021/07/16 09:58:35;;;;;;;7.93;7.10;;;;;;;;;;475534;249;27411;-72
2021/07/16 10:00:38;;;;;;;8.93;6.70;;;;;;;;;;475518;249;27438;-71
2021/07/16 10:02:40;;;;;;;8.10;7.10;;;;;;;;;;475508;248;27370;-71
2021/07/16 10:04:42;;;;;;;7.47;6.77;;;;;;;;;;475572;249;27379;-71
2021/07/16 10:06:44;;;;;;;6.63;5.80;;;;;;;;;;475585;249;27379;-70
2021/07/16 10:08:46;;;;;;;7.17;6.30;;;;;;;;;;475525;249;27438;-71
2021/07/16 10:10:48;;;;;;;7.70;6.90;;;;;;;;;;475559;249;27414;-71
2021/07/16 10:12:50;;;;;;;7.90;6.87;;;;;;;;;;475555;249;27395;-72
2021/07/16 10:14:52;;;;;;;6.67;6.00;;;;;;;;;;475519;248;27490;-72
2021/07/16 10:16:54;;;;;;;8.07;6.57;;;;;;;;;;475366;249;27482;-71
2021/07/16 10:18:57;;;;;;;7.60;6.60;;;;;;;;;;475386;249;27486;-71
2021/07/16 10:20:59;;;;;;;7.17;6.47;;;;;;;;;;475502;248;27399;-71
2021/07/16 10:23:01;;;;;;;7.47;6.00;;;;;;;;;;475548;248;27892;-71
2021/07/16 10:25:03;;;;;;;6.60;6.00;;;;;;;;;;475777;248;27421;-72
2021/07/16 10:27:05;;;;;;;6.07;5.47;;;;;;;;;;475522;249;28023;-72
2021/07/16 10:29:07;;;;;;;6.57;5.97;;;;;;;;;;475557;249;27501;-71
2021/07/16 10:31:09;;;;;;;5.90;5.40;;;;;;;;;;475551;249;27987;-71
2021/07/16 10:33:11;;;;;;;5.40;4.93;;;;;;;;;;475550;249;27410;-71
2021/07/16 10:35:14;;;;;;;6.27;5.67;;;;;;;;;;475573;249;27904;-71
2021/07/16 10:37:16;;;;;;;6.20;5.60;;;;;;;;;;475522;249;27435;-71
2021/07/16 10:39:18;;;;;;;5.77;5.17;;;;;;;;;;475582;248;27848;-71
2021/07/16 10:41:20;;;;;;;5.53;5.03;;;;;;;;;;475558;249;27382;-71
2021/07/16 10:43:22;;;;;;;4.87;4.47;;;;;;;;;;475506;249;27864;-71
2021/07/16 10:45:24;;;;;;;6.33;5.27;;;;;;;;;;475573;249;27375;-71
2021/07/16 10:47:26;;;;;;;5.70;5.20;;;;;;;;;;485183;245;27921;-71
2021/07/16 10:49:28;;;;;;;5.30;4.80;;;;;;;;;;485128;243;27593;-71
2021/07/16 10:51:30;;;;;;;5.37;4.97;;;;;;;;;;485213;243;27979;-71
2021/07/16 10:53:33;;;;;;;6.00;5.33;;;;;;;;;;485214;243;27594;-71
2021/07/16 10:55:37;;;;;;;5.70;4.80;;;;;;;;;;485140;243;27935;-71
2021/07/16 10:57:40;;;;;;;5.70;5.10;;;;;;;;;;485194;243;27607;-71
2021/07/16 10:59:42;;;;;;;5.80;5.30;;;;;;;;;;485150;243;27854;-71
2021/07/16 11:01:44;;;;;;;4.70;4.30;;;;;;;;;;485148;243;27508;-72
2021/07/16 11:03:46;;;;;;;5.80;4.50;;;;;;;;;;485203;243;27559;-71
2021/07/16 11:05:48;;;;;;;4.90;4.53;;;;;;;;;;485121;243;27568;-71
2021/07/16 11:07:50;;;;;;;5.17;4.37;;;;;;;;;;485082;243;27540;-72
2021/07/16 11:09:52;;;;;;;4.90;4.33;;;;;;;;;;485151;243;27595;-71
2021/07/16 11:11:54;;;;;;;5.03;4.53;;;;;;;;;;485109;243;27611;-71
2021/07/16 11:13:56;;;;;;;4.33;4.03;;;;;;;;;;485143;243;27579;-72
2021/07/16 11:15:59;;;;;;;4.20;3.90;;;;;;;;;;485176;243;27552;-71
2021/07/16 11:18:01;;;;;;;4.40;4.00;;;;;;;;;;485099;243;27457;-72
2021/07/16 11:20:03;;;;;;;4.20;3.80;;;;;;;;;;485193;243;27567;-72
2021/07/16 11:22:05;;;;;;;5.50;5.00;;;;;;;;;;485104;243;27472;-72
2021/07/16 11:24:07;;;;;;;5.40;5.00;;;;;;;;;;484678;244;27543;-72
2021/07/16 11:26:09;;;;;;;5.47;4.97;;;;;;;;;;484736;243;27436;-70
2021/07/16 11:28:11;;;;;;;4.70;4.13;;;;;;;;;;484671;243;27436;-71
2021/07/16 11:30:13;;;;;;;6.70;4.80;;;;;;;;;;484692;243;27416;-71
2021/07/16 11:32:16;;;;;;;4.87;4.47;;;;;;;;;;484701;243;27428;-72
2021/07/16 11:34:19;;;;;;;4.73;4.23;;;;;;;;;;482569;242;27642;-72
2021/07/16 11:36:20;;;;;;;5.30;4.80;;;;;;;;;;481286;245;27507;-71
2021/07/16 11:38:22;;;;;;;6.27;5.67;;;;;;;;;;481314;247;27552;-71
2021/07/16 11:40:24;;;;;;;6.53;5.87;;;;;;;;;;481337;246;27419;-71
2021/07/16 11:42:26;;;;;;;6.10;5.50;;;;;;;;;;481168;247;27792;-71
2021/07/16 11:44:28;;;;;;;6.33;5.73;;;;;;;;;;484506;242;27420;-72
2021/07/16 11:46:30;;;;;;;7.97;7.00;;;;;;;;;;489837;242;27543;-71
2021/07/16 11:48:32;;;;;;;6.47;5.87;;;;;;;;;;489918;242;27548;-71
2021/07/16 11:50:34;;;;;;;6.80;6.20;;;;;;;;;;489934;242;27520;-71
2021/07/16 11:52:37;;;;;;;7.47;6.57;;;;;;;;;;489927;242;27572;-71
2021/07/16 11:54:39;;;;;;;6.27;5.77;;;;;;;;;;489977;242;27424;-71
2021/07/16 11:56:41;;;;;;;7.30;6.60;;;;;;;;;;489950;242;27517;-73
2021/07/16 11:58:43;;;;;;;6.97;6.27;;;;;;;;;;490168;242;28068;-70
2021/07/16 12:00:45;;;;;;;6.67;6.07;;;;;;;;;;490156;242;27497;-72
2021/07/16 12:02:47;;;;;;;7.27;6.53;;;;;;;;;;490166;242;28004;-72
2021/07/16 12:04:49;;;;;;;6.90;6.20;;;;;;;;;;490154;242;27536;-71
2021/07/16 12:06:51;;;;;;;6.43;5.83;;;;;;;;;;490160;242;27887;-71
2021/07/16 12:08:54;;;;;;;7.53;6.93;;;;;;;;;;490153;242;27420;-72
2021/07/16 12:10:56;;;;;;;7.30;6.50;;;;;;;;;;490136;242;27935;-71
2021/07/16 12:12:58;;;;;;;8.47;7.67;;;;;;;;;;490122;242;27508;-71